Aérodrome :
LOGIN :

S'inscrire | Disclaimer

   EN    FR    IT 

 










Légende :    VFR   VFR Marginal   IFR   IFR Intensif   IFR Très Intensif
Visi : 
Plafond : 
>= 8 km
>= 3000ft
5 à 8 km
1000 à 3000 ft
1500m à 5 km
500 à 1000 ft
800 à 1500m
200 à 500 ft
< 800m
< 200 ft
Symboles :   Orages  Brouillard  Fortes neiges  Fortes précipitations  Vent > 20 kt
SIGMETs :   Divers  Orages  Givrage  Turbulence  Onde Orograph.  Cendres Volcan.






- Altitude de l'aérodrome : 156 ft
- Code IATA : LCC


LIBN - Lecce Galatine (military)

DERNIER METAR :
  • 240755Z 25007KT 9999 FEW040 17/09 Q1009 RMK FEW VIS MIN 9999 WIND THR14 23008KT WIND THR32 22008KT BLU

METARs EXPIRÉS :
  • 240655Z 18002KT CAVOK 15/08 Q1009 RMK SCT SCT100 VIS MIN 9999 WIND THR14 20002KT WIND THR32 16001KT BLU
  • 240555Z 13002KT CAVOK 12/10 Q1009
  • 240455Z 15002KT 9999 FEW050 08/07 Q1009 RMK FEW VIS MIN 9999 WIND THR14 16003KT WIND THR32 13002KT BLU
  • 240355Z 12003KT 9999 BKN050 08/08 Q1009 RMK BKN VIS MIN 9999 WIND THR14 18003KT WIND THR32 15003KT BLU

TAF TAF LIBN
Valide du 24 à 09h jusqu'au 24 à 18h UTC


240800Z 2409/2418 23012KT 9999 FEW040
TEMPO 2410/2415 23012G22KT SCT040



MET'MAP, la Météo Aéronautique d'un coup d'oeil ! - Copyright ORBIFLY Décembre 2007 - Disclaimer

ORBIFLY MET'MAP TEAM :

Programmation & Développement : Alexandra Zaïnal
Sur une idée originale de : Baudouin d'Aumeries
Soutien technique & logistique : Manuel Goepfert
Assistance : Marc-Olivier Méhu




SOURCES & CREDITS :

   NOAA